Time;durP1;ratioP1;P1;durP2;ratioP2;P2;SDS_P1;SDS_P2;PMS_P1;PMS_P2;Temp;Humidity;BMP_temperature;BMP_pressure;BME280_temperature;BME280_humidity;BME280_pressure;Samples;Min_cycle;Max_cycle;Signal;HPM_P1;HPM_P2
2024/01/26 00:03:23;;;;;;;4.18;2.85;;;;;;;13.28;100.00;101310.78;10557746;28;20043;-82
2024/01/26 00:08:45;;;;;;;5.07;3.30;;;;;;;13.03;100.00;101320.13;10574396;27;20048;-82
2024/01/26 00:14:08;;;;;;;33.70;22.75;;;;;;;12.68;100.00;101318.69;10561597;28;20116;-82
2024/01/26 00:19:32;;;;;;;9.80;4.00;;;;;;;12.87;100.00;101327.81;10550606;28;20601;-82
2024/01/26 00:24:55;;;;;;;9.50;5.32;;;;;;;13.00;100.00;101329.78;10546868;28;20054;-83
2024/01/26 00:30:18;;;;;;;11.45;9.05;;;;;;;13.31;100.00;101341.75;10560038;28;20042;-82
2024/01/26 00:35:42;;;;;;;14.65;9.20;;;;;;;13.39;100.00;101351.56;10548867;28;20055;-83
2024/01/26 00:41:04;;;;;;;6.72;4.25;;;;;;;13.40;100.00;101353.38;10560206;28;20039;-83
2024/01/26 00:46:27;;;;;;;13.35;9.77;;;;;;;13.53;100.00;101360.63;10561223;28;20051;-83
2024/01/26 00:51:55;;;;;;;10.85;5.65;;;;;;;13.47;100.00;101355.22;10559397;28;20050;-84
2024/01/26 00:57:21;;;;;;;7.68;5.55;;;;;;;13.24;100.00;101353.16;10546168;28;20048;-83
2024/01/26 01:02:44;;;;;;;10.90;7.40;;;;;;;13.11;100.00;101357.34;10558213;28;20126;-83
2024/01/26 01:08:09;;;;;;;11.25;8.32;;;;;;;12.86;100.00;101357.84;10574913;28;20056;-84
2024/01/26 01:13:33;;;;;;;7.55;4.07;;;;;;;12.65;100.00;101358.38;10569757;28;20101;-83
2024/01/26 01:18:56;;;;;;;7.90;4.22;;;;;;;12.50;100.00;101359.00;10563357;28;20051;-84
2024/01/26 01:24:23;;;;;;;11.77;7.10;;;;;;;12.02;100.00;101352.81;10545490;28;20130;-83
2024/01/26 01:29:46;;;;;;;8.23;4.75;;;;;;;11.77;100.00;101373.50;10573274;28;20450;-83
2024/01/26 01:35:10;;;;;;;11.73;4.15;;;;;;;11.70;100.00;101366.25;10552642;28;20139;-82
2024/01/26 01:40:34;;;;;;;7.38;3.90;;;;;;;11.77;100.00;101368.22;10531632;28;20063;-83
2024/01/26 01:45:56;;;;;;;6.88;3.92;;;;;;;11.59;100.00;101378.38;10548307;28;20092;-83
2024/01/26 01:51:20;;;;;;;8.73;4.78;;;;;;;11.83;100.00;101363.03;10546200;28;20047;-82
2024/01/26 01:56:45;;;;;;;7.40;4.45;;;;;;;12.05;100.00;101368.75;10592332;27;20044;-83
2024/01/26 02:02:07;;;;;;;5.40;4.40;;;;;;;12.12;100.00;101360.97;10587542;27;20039;-83
2024/01/26 02:07:29;;;;;;;7.75;4.93;;;;;;;12.24;100.00;101355.91;10562514;28;20047;-83
2024/01/26 02:12:53;;;;;;;8.23;5.28;;;;;;;12.41;100.00;101358.84;10579699;28;20047;-83
2024/01/26 02:18:16;;;;;;;9.82;5.82;;;;;;;12.51;100.00;101355.50;10560349;28;20039;-83
2024/01/26 02:23:41;;;;;;;9.95;6.53;;;;;;;12.64;100.00;101352.19;10567523;28;20047;-83
2024/01/26 02:29:05;;;;;;;7.15;3.40;;;;;;;12.65;100.00;101350.44;10591656;27;20048;-83
2024/01/26 02:34:27;;;;;;;4.10;2.03;;;;;;;12.88;100.00;101356.09;10565327;28;20062;-83
2024/01/26 02:39:51;;;;;;;4.18;2.20;;;;;;;13.14;100.00;101345.03;10554404;28;20123;-83
2024/01/26 02:45:14;;;;;;;8.32;2.50;;;;;;;13.53;100.00;101349.09;10580149;28;20051;-83
2024/01/26 02:50:36;;;;;;;8.35;2.40;;;;;;;13.95;100.00;101343.44;10573787;28;20070;-83
2024/01/26 02:56:00;;;;;;;4.93;2.10;;;;;;;14.42;100.00;101340.41;10558966;28;20067;-84
2024/01/26 03:01:22;;;;;;;5.63;2.00;;;;;;;14.73;100.00;101343.34;10579778;28;20044;-83
2024/01/26 03:06:45;;;;;;;4.63;1.48;;;;;;;14.62;100.00;101336.16;10563938;28;20058;-83
2024/01/26 03:12:11;;;;;;;4.05;1.58;;;;;;;14.56;100.00;101346.75;10564686;28;20047;-83
2024/01/26 03:17:36;;;;;;;5.63;1.83;;;;;;;14.70;100.00;101358.38;10522082;28;20391;-83
2024/01/26 03:22:58;;;;;;;2.97;1.15;;;;;;;14.42;100.00;101366.97;10578367;28;20457;-84
2024/01/26 03:28:24;;;;;;;2.70;1.80;;;;;;;14.33;100.00;101367.72;10559623;28;20113;-83
2024/01/26 03:33:48;;;;;;;6.40;2.40;;;;;;;14.32;100.00;101369.50;10561737;28;20040;-83
2024/01/26 03:39:13;;;;;;;4.00;1.95;;;;;;;14.39;100.00;101372.25;10569306;28;20044;-83
2024/01/26 03:44:40;;;;;;;5.85;1.75;;;;;;;14.29;100.00;101379.22;10564257;28;20075;-84
2024/01/26 03:50:04;;;;;;;6.30;1.77;;;;;;;14.24;100.00;101387.09;10577142;28;20052;-83
2024/01/26 03:55:26;;;;;;;4.38;1.80;;;;;;;14.16;100.00;101395.88;10562242;28;20134;-84
2024/01/26 04:00:50;;;;;;;6.13;2.28;;;;;;;14.06;100.00;101394.88;10563321;27;20081;-83
2024/01/26 04:06:13;;;;;;;9.38;2.78;;;;;;;14.28;100.00;101390.72;10576718;28;20051;-83
2024/01/26 04:11:35;;;;;;;8.27;3.35;;;;;;;14.35;100.00;101393.44;10576822;28;20051;-83
2024/01/26 04:17:01;;;;;;;4.93;2.38;;;;;;;14.18;100.00;101397.66;10571982;28;20047;-84
2024/01/26 04:22:24;;;;;;;8.52;2.75;;;;;;;14.21;100.00;101410.09;10563261;27;20139;-84
2024/01/26 04:27:47;;;;;;;7.97;2.60;;;;;;;14.22;100.00;101406.56;10561357;28;20047;-83
2024/01/26 04:33:15;;;;;;;13.90;2.50;;;;;;;14.33;100.00;101408.47;10587601;27;20059;-82
2024/01/26 04:38:38;;;;;;;;;;;;;;;14.85;100.00;101419.63;10552569;28;20105;-83
2024/01/26 04:44:02;;;;;;;8.65;2.75;;;;;;;14.98;100.00;101421.50;10562093;28;19935;-82
2024/01/26 04:49:28;;;;;;;9.52;2.80;;;;;;;15.31;100.00;101444.81;10561049;28;20500;-84
2024/01/26 04:54:51;;;;;;;3.22;1.50;;;;;;;15.44;100.00;101446.69;10541447;28;20437;-83
2024/01/26 05:00:17;;;;;;;4.10;2.50;;;;;;;15.33;100.00;101468.78;10551500;28;20058;-84
2024/01/26 05:05:46;;;;;;;10.02;2.38;;;;;;;15.30;100.00;101463.41;10548649;28;20098;-83
2024/01/26 05:11:10;;;;;;;4.75;2.65;;;;;;;15.41;100.00;101477.72;10549816;28;20055;-83
2024/01/26 05:16:33;;;;;;;6.60;2.97;;;;;;;15.47;100.00;101472.44;10551568;28;20047;-84
2024/01/26 05:22:00;;;;;;;25.45;10.65;;;;;;;15.54;100.00;101484.94;10539781;28;20036;-84
2024/01/26 05:27:26;;;;;;;11.25;8.15;;;;;;;15.34;100.00;101491.84;10565659;28;20040;-84
2024/01/26 05:32:51;;;;;;;6.75;3.70;;;;;;;15.36;100.00;101493.63;10591475;27;20039;-84
2024/01/26 05:38:19;;;;;;;7.75;4.15;;;;;;;15.38;100.00;101501.63;10585264;27;20051;-84
2024/01/26 05:43:42;;;;;;;7.72;3.55;;;;;;;15.12;100.00;101517.38;10544947;28;20059;-84
2024/01/26 05:49:05;;;;;;;10.15;2.70;;;;;;;15.00;100.00;101514.59;10567100;28;20457;-84
2024/01/26 05:54:29;;;;;;;7.43;2.75;;;;;;;15.06;100.00;101523.53;10582314;28;20044;-85
2024/01/26 05:59:53;;;;;;;6.00;2.50;;;;;;;15.30;100.00;101520.19;10581438;28;20072;-84
2024/01/26 06:05:17;;;;;;;6.78;2.60;;;;;;;15.29;100.00;101529.06;10567042;28;20492;-84
2024/01/26 06:10:42;;;;;;;9.65;3.05;;;;;;;15.32;100.00;101536.16;10567432;28;20050;-85
2024/01/26 06:16:06;;;;;;;6.90;2.88;;;;;;;15.38;100.00;101546.84;10576205;27;20052;-84
2024/01/26 06:21:28;;;;;;;6.95;3.65;;;;;;;15.43;100.00;101551.34;10570790;27;20054;-85
2024/01/26 06:26:52;;;;;;;6.68;3.00;;;;;;;15.44;100.00;101546.91;10575207;28;20399;-84
2024/01/26 06:32:16;;;;;;;8.70;4.10;;;;;;;17.00;87.66;101544.25;10577106;27;20036;-85
2024/01/26 06:37:38;;;;;;;6.93;3.08;;;;;;;16.65;85.55;101561.03;10551208;28;20071;-85
2024/01/26 06:43:06;;;;;;;7.57;3.63;;;;;;;17.97;71.73;101560.28;10592279;27;20048;-85
2024/01/26 06:48:30;;;;;;;6.60;2.77;;;;;;;17.79;69.49;101562.97;10564284;28;20139;-85
2024/01/26 06:54:00;;;;;;;6.78;2.28;;;;;;;17.71;72.56;101554.09;10566085;28;20047;-86
2024/01/26 06:59:32;;;;;;;4.80;2.05;;;;;;;17.64;74.08;101549.66;10554247;28;20130;-85
2024/01/26 07:04:55;;;;;;;6.63;3.50;;;;;;;18.16;64.40;101546.00;10564139;28;20039;-86
2024/01/26 07:10:20;;;;;;;4.88;2.90;;;;;;;19.41;57.48;101540.84;10565059;28;20391;-86
2024/01/26 07:15:48;;;;;;;8.45;2.72;;;;;;;18.44;61.00;101557.47;10578374;28;20052;-86
2024/01/26 07:21:19;;;;;;;11.35;3.83;;;;;;;19.44;57.19;101554.22;10553716;28;20078;-86
2024/01/26 07:26:46;;;;;;;6.53;2.95;;;;;;;20.54;50.30;101561.19;10578460;28;20063;-86
2024/01/26 07:37:51;;;;;;;63.35;30.92;;;;;;;19.86;49.66;101566.38;10553860;28;20051;-86
2024/01/26 07:43:15;;;;;;;12.85;9.13;;;;;;;19.45;52.80;101573.84;10578361;27;20535;-86
2024/01/26 07:48:41;;;;;;;8.38;4.50;;;;;;;20.46;52.58;101588.13;10581534;27;20052;-86
2024/01/26 07:54:05;;;;;;;7.75;5.60;;;;;;;25.27;40.31;101581.31;10577936;28;20407;-87
2024/01/26 07:59:27;;;;;;;9.57;5.60;;;;;;;22.52;42.83;101592.00;10561478;28;20104;-88
2024/01/26 08:04:53;;;;;;;6.78;4.22;;;;;;;21.35;45.97;101598.56;10576861;28;20062;-85
2024/01/26 08:10:16;;;;;;;16.05;12.25;;;;;;;19.39;50.56;101606.03;10576994;28;20715;-87
2024/01/26 08:15:42;;;;;;;10.30;7.75;;;;;;;20.43;50.94;101606.03;10591459;27;20377;-86
2024/01/26 08:21:07;;;;;;;2.97;1.60;;;;;;;23.26;42.04;101610.16;10560339;28;20044;-84
2024/01/26 08:26:30;;;;;;;6.70;4.47;;;;;;;21.83;44.42;101603.13;10575214;28;20438;-87
2024/01/26 08:31:52;;;;;;;4.15;2.88;;;;;;;21.86;44.05;101612.94;10547502;28;20062;-85
2024/01/26 08:37:16;;;;;;;3.53;2.40;;;;;;;21.20;43.61;101614.91;10561457;27;20135;-86
2024/01/26 08:42:39;;;;;;;4.60;2.80;;;;;;;23.92;39.95;101602.25;10562248;28;20510;-87
2024/01/26 08:48:01;;;;;;;3.42;2.10;;;;;;;25.37;36.64;101616.09;10559957;28;20058;-87
2024/01/26 08:53:25;;;;;;;4.28;1.90;;;;;;;27.13;33.38;101625.22;10572591;28;20039;-87
2024/01/26 08:58:47;;;;;;;5.00;2.83;;;;;;;26.95;32.77;101618.69;10569215;28;20400;-86
2024/01/26 09:04:10;;;;;;;10.45;5.75;;;;;;;24.98;35.27;101609.22;10570963;28;20044;-80
2024/01/26 09:09:34;;;;;;;7.75;4.90;;;;;;;23.88;37.52;101607.78;10575242;28;20051;-81
2024/01/26 09:14:57;;;;;;;3.05;2.38;;;;;;;22.75;39.73;101607.72;10589277;28;20052;-81
2024/01/26 09:20:19;;;;;;;7.43;4.20;;;;;;;21.81;41.92;101596.00;10587229;28;20441;-80
2024/01/26 09:25:45;;;;;;;3.15;1.70;;;;;;;22.56;42.09;101593.72;10518660;28;20056;-80
2024/01/26 09:31:07;;;;;;;5.38;1.70;;;;;;;23.12;39.78;101582.66;10518557;28;20052;-79
2024/01/26 09:36:31;;;;;;;6.72;2.10;;;;;;;21.27;42.82;101589.72;10546680;28;20060;-80
2024/01/26 09:41:55;;;;;;;6.35;3.22;;;;;;;23.22;40.88;101581.53;10535945;28;20128;-81
2024/01/26 09:47:19;;;;;;;8.68;2.63;;;;;;;22.89;40.56;101585.88;10573640;28;20051;-80
2024/01/26 09:52:42;;;;;;;4.07;1.92;;;;;;;21.69;43.16;101582.78;10559780;28;20058;-81
2024/01/26 09:58:07;;;;;;;4.80;2.42;;;;;;;20.49;45.48;101571.06;10560354;28;20073;-80
2024/01/26 10:03:29;;;;;;;7.10;2.20;;;;;;;20.27;45.84;101567.75;10559972;28;20056;-80
2024/01/26 10:08:52;;;;;;;2.78;1.80;;;;;;;19.58;45.82;101572.00;10559722;28;20039;-80
2024/01/26 10:14:22;;;;;;;6.35;2.40;;;;;;;19.35;47.12;101572.16;10559806;28;20101;-79
2024/01/26 10:19:45;;;;;;;9.93;6.05;;;;;;;19.21;48.75;101574.94;10553470;28;20048;-80
2024/01/26 10:25:08;;;;;;;8.30;2.83;;;;;;;20.21;48.83;101567.81;10524856;28;20060;-80
2024/01/26 10:30:32;;;;;;;4.13;2.35;;;;;;;23.08;43.50;101554.03;10550606;28;20054;-81
2024/01/26 10:36:00;;;;;;;7.40;2.20;;;;;;;25.89;37.89;101553.97;10580277;28;20048;-80
2024/01/26 10:41:25;;;;;;;4.50;2.03;;;;;;;27.04;35.15;101540.66;10594845;27;20167;-81
2024/01/26 10:46:50;;;;;;;4.18;1.60;;;;;;;28.12;33.09;101531.50;10566040;28;20040;-81
2024/01/26 10:52:17;;;;;;;3.08;1.50;;;;;;;26.07;34.60;101521.72;10566293;28;20047;-81
2024/01/26 10:57:40;;;;;;;3.25;1.77;;;;;;;25.14;35.65;101523.16;10552694;28;20056;-81
2024/01/26 11:03:04;;;;;;;3.45;1.73;;;;;;;25.88;35.15;101523.31;10538231;28;20106;-81
2024/01/26 11:08:29;;;;;;;9.60;5.43;;;;;;;24.03;37.54;101511.13;10554685;28;20484;-81
2024/01/26 11:13:53;;;;;;;7.97;3.30;;;;;;;21.88;41.38;101507.16;10564551;28;20039;-81
2024/01/26 11:19:24;;;;;;;3.80;1.77;;;;;;;20.94;43.37;101510.50;10578422;28;20139;-80
2024/01/26 11:24:47;;;;;;;4.80;2.33;;;;;;;20.92;43.72;101507.00;10564417;28;20499;-80
2024/01/26 11:30:22;;;;;;;6.22;2.53;;;;;;;21.13;43.26;101503.09;10577901;28;20055;-80
2024/01/26 11:35:46;;;;;;;7.90;3.63;;;;;;;21.29;41.99;101515.38;10563652;27;20051;-81
2024/01/26 11:41:11;;;;;;;4.85;2.08;;;;;;;21.65;41.50;101506.69;10576990;28;20039;-81
2024/01/26 11:46:34;;;;;;;5.13;2.22;;;;;;;20.22;44.48;101505.22;10573216;28;20044;-80
2024/01/26 11:51:58;;;;;;;3.55;1.83;;;;;;;21.36;43.68;101482.13;10577241;28;20054;-80
2024/01/26 11:57:20;;;;;;;13.88;6.93;;;;;;;21.16;43.88;101508.44;10559048;28;20055;-79
2024/01/26 12:02:43;;;;;;;8.32;4.50;;;;;;;20.27;45.31;101511.44;10560613;28;20108;-78
2024/01/26 12:08:10;;;;;;;11.20;7.55;;;;;;;19.67;46.29;101505.84;10572253;28;20336;-77
2024/01/26 12:13:32;;;;;;;5.63;3.10;;;;;;;19.45;46.41;101512.25;10575138;28;20434;-78
2024/01/26 12:18:56;;;;;;;14.80;8.20;;;;;;;19.50;46.61;101505.09;10557091;28;20060;-82
2024/01/26 12:24:22;;;;;;;8.65;3.40;;;;;;;19.33;48.04;101507.00;10559820;28;20488;-80
2024/01/26 12:29:46;;;;;;;11.13;5.15;;;;;;;19.10;48.69;101505.38;10560921;27;20120;-80
2024/01/26 12:35:09;;;;;;;19.05;9.15;;;;;;;18.70;48.57;101495.88;10563051;27;20487;-79
2024/01/26 12:40:33;;;;;;;11.30;7.82;;;;;;;18.39;49.41;101504.88;10559971;27;20225;-84
2024/01/26 12:45:56;;;;;;;6.82;3.22;;;;;;;18.24;48.60;101504.09;10545478;28;20044;-79
2024/01/26 12:51:19;;;;;;;6.95;2.92;;;;;;;18.19;47.90;101500.53;10562491;28;20047;-81
2024/01/26 12:56:43;;;;;;;5.80;4.20;;;;;;;18.80;47.46;101499.38;10555993;28;20040;-83
2024/01/26 13:02:07;;;;;;;9.27;4.60;;;;;;;18.35;49.38;101506.72;10570153;28;20056;-84
2024/01/26 13:07:31;;;;;;;14.02;7.78;;;;;;;18.00;51.79;101509.50;10572786;28;20073;-87
2024/01/26 13:12:55;;;;;;;12.10;6.72;;;;;;;17.63;51.84;101506.03;10570617;28;20048;-82
2024/01/26 13:18:18;;;;;;;22.98;11.77;;;;;;;17.52;51.03;101508.66;10549904;28;20036;-83
2024/01/26 13:23:41;;;;;;;5.97;3.42;;;;;;;17.59;50.67;101506.00;10568320;28;20044;-80
2024/01/26 13:29:05;;;;;;;9.35;4.50;;;;;;;18.10;49.11;101511.25;10572331;28;20138;-81
2024/01/26 13:34:27;;;;;;;8.48;4.07;;;;;;;18.84;46.63;101504.69;10561517;28;20159;-80
2024/01/26 13:39:50;;;;;;;10.20;4.90;;;;;;;18.83;46.72;101510.94;10579817;27;20078;-81
2024/01/26 13:45:14;;;;;;;7.00;4.70;;;;;;;18.52;47.62;101512.84;10558975;28;20092;-82
2024/01/26 13:50:38;;;;;;;10.38;5.00;;;;;;;18.37;47.92;101509.38;10546673;28;20074;-82
2024/01/26 13:56:00;;;;;;;6.22;2.92;;;;;;;17.93;49.17;101507.72;10554134;28;20051;-83
2024/01/26 14:01:24;;;;;;;7.82;3.95;;;;;;;17.34;51.56;101527.34;10541141;28;20052;-83
2024/01/26 14:06:48;;;;;;;8.82;3.67;;;;;;;17.25;52.05;101518.47;10565974;28;20048;-81
2024/01/26 14:12:10;;;;;;;9.25;3.45;;;;;;;17.23;52.38;101517.56;10572756;27;20130;-82
2024/01/26 14:17:34;;;;;;;22.45;15.73;;;;;;;17.44;51.98;101502.47;10542946;28;20039;-83
2024/01/26 14:22:57;;;;;;;8.50;3.25;;;;;;;17.47;50.26;101507.78;10551754;28;20105;-82
2024/01/26 14:28:20;;;;;;;9.75;4.47;;;;;;;17.24;47.94;101517.56;10564634;28;20040;-82
2024/01/26 14:33:44;;;;;;;10.63;4.72;;;;;;;16.98;47.35;101522.00;10565540;28;20038;-83
2024/01/26 14:39:08;;;;;;;9.55;3.97;;;;;;;17.24;46.31;101517.56;10577092;27;20051;-85
2024/01/26 14:44:30;;;;;;;6.97;2.83;;;;;;;17.42;45.19;101522.03;10573899;27;20048;-85
2024/01/26 14:49:56;;;;;;;16.33;5.75;;;;;;;17.23;46.10;101530.91;10573931;27;20488;-86
2024/01/26 14:55:21;;;;;;;9.88;3.70;;;;;;;16.83;48.01;101538.84;10589311;27;20044;-83
2024/01/26 15:00:43;;;;;;;8.02;3.15;;;;;;;16.74;49.02;101539.72;10556522;28;20055;-81
2024/01/26 15:06:08;;;;;;;10.52;3.75;;;;;;;16.58;50.40;101532.53;10566316;27;20043;-83
2024/01/26 15:11:31;;;;;;;7.25;3.17;;;;;;;16.20;52.10;101537.72;10543934;28;20056;-80
2024/01/26 15:16:53;;;;;;;5.85;3.25;;;;;;;15.74;54.29;101549.84;10561895;27;20068;-80
2024/01/26 15:22:18;;;;;;;7.65;3.00;;;;;;;15.28;55.91;101553.00;10561297;27;20043;-82
2024/01/26 15:27:41;;;;;;;8.75;3.03;;;;;;;14.93;55.31;101547.31;10561670;28;20035;-82
2024/01/26 15:33:04;;;;;;;12.18;5.10;;;;;;;14.66;55.27;101542.59;10548180;28;20144;-82
2024/01/26 15:38:28;;;;;;;10.50;4.80;;;;;;;14.51;54.57;101550.38;10563660;27;20060;-81
2024/01/26 15:43:51;;;;;;;8.90;3.78;;;;;;;14.48;53.35;101559.22;10559537;28;20075;-81
2024/01/26 15:49:13;;;;;;;9.80;3.40;;;;;;;14.32;53.00;101573.13;10574153;28;20511;-80
2024/01/26 15:54:38;;;;;;;12.00;6.25;;;;;;;14.13;53.58;101579.94;10567489;27;20058;-81
2024/01/26 16:00:00;;;;;;;10.50;6.13;;;;;;;14.18;53.89;101575.59;10575423;28;20442;-85
2024/01/26 16:05:23;;;;;;;8.07;4.65;;;;;;;14.04;55.79;101578.94;10590692;27;20247;-83
2024/01/26 16:10:47;;;;;;;12.07;3.80;;;;;;;14.00;58.44;101585.06;10570986;28;20047;-83
2024/01/26 16:16:09;;;;;;;12.35;4.93;;;;;;;14.01;58.66;101597.47;10574689;28;20403;-83
2024/01/26 16:21:32;;;;;;;11.77;4.78;;;;;;;13.77;58.11;101598.88;10560821;28;20051;-83
2024/01/26 16:26:57;;;;;;;27.33;12.57;;;;;;;13.72;54.26;101603.22;10564549;28;20036;-83
2024/01/26 16:32:19;;;;;;;9.70;5.82;;;;;;;13.71;52.72;101603.22;10553826;27;20093;-86
2024/01/26 16:37:42;;;;;;;8.38;4.38;;;;;;;13.66;52.48;101610.16;10532359;27;20051;-87
2024/01/26 16:43:06;;;;;;;6.53;3.45;;;;;;;13.80;53.24;101611.28;10567595;27;20043;-83
2024/01/26 16:48:29;;;;;;;8.88;4.78;;;;;;;13.63;55.47;101615.44;10569524;27;20048;-80
2024/01/26 16:53:51;;;;;;;6.30;4.13;;;;;;;13.68;57.87;101619.06;10564604;27;20063;-81
2024/01/26 16:59:16;;;;;;;9.93;5.15;;;;;;;13.77;59.15;101621.88;10563468;28;20552;-80
2024/01/26 17:04:39;;;;;;;24.63;11.73;;;;;;;13.82;58.72;101625.50;10569273;28;20040;-83
2024/01/26 17:10:01;;;;;;;9.70;6.82;;;;;;;13.91;57.56;101620.34;10574054;28;20051;-82
2024/01/26 17:15:25;;;;;;;12.35;6.55;;;;;;;14.01;56.45;101630.22;10540992;28;20047;-83
2024/01/26 17:20:48;;;;;;;9.63;4.82;;;;;;;14.21;55.18;101633.19;10571636;27;20500;-78
2024/01/26 17:26:10;;;;;;;9.32;6.97;;;;;;;14.27;55.40;101628.84;10578099;28;20059;-82
2024/01/26 17:31:34;;;;;;;7.95;4.45;;;;;;;14.45;54.44;101627.34;10554550;28;20113;-84
2024/01/26 17:36:57;;;;;;;10.88;4.93;;;;;;;14.43;54.39;101626.44;10573056;27;20046;-84
2024/01/26 17:42:19;;;;;;;7.57;5.78;;;;;;;14.40;54.01;101623.75;10578829;28;20138;-81
2024/01/26 17:47:47;;;;;;;48.45;24.20;;;;;;;14.25;53.90;101642.97;10578302;27;20051;-83
2024/01/26 17:53:09;;;;;;;14.02;7.57;;;;;;;14.34;52.47;101643.09;10554095;27;20116;-81
2024/01/26 17:58:32;;;;;;;7.97;4.70;;;;;;;14.29;51.47;101644.81;10566351;27;20035;-80
2024/01/26 18:03:57;;;;;;;11.73;5.78;;;;;;;14.22;51.38;101653.56;10566452;28;20044;-80
2024/01/26 18:09:20;;;;;;;14.82;8.18;;;;;;;14.29;51.13;101661.66;10612025;27;20062;-80
2024/01/26 18:14:43;;;;;;;12.15;7.15;;;;;;;14.15;51.89;101657.00;10562795;27;20108;-81
2024/01/26 18:20:09;;;;;;;12.75;6.47;;;;;;;14.14;51.97;101655.19;10579684;28;20048;-78
2024/01/26 18:25:31;;;;;;;14.48;8.02;;;;;;;14.08;52.64;101661.31;10578037;27;20043;-82
2024/01/26 18:30:54;;;;;;;11.93;8.30;;;;;;;13.87;54.54;101668.91;10558031;27;20093;-82
2024/01/26 18:36:18;;;;;;;8.80;6.13;;;;;;;13.87;55.80;101679.53;10558054;28;20048;-80
2024/01/26 18:41:40;;;;;;;14.20;6.47;;;;;;;14.07;56.43;101669.25;10577748;28;20043;-80
2024/01/26 18:47:03;;;;;;;14.35;7.80;;;;;;;14.13;57.34;101688.81;10574077;28;20097;-82
2024/01/26 18:52:29;;;;;;;17.60;9.90;;;;;;;14.20;58.42;101688.06;10574281;27;20059;-81
2024/01/26 18:57:51;;;;;;;17.63;8.80;;;;;;;14.15;59.27;101689.75;10586943;27;20040;-83
2024/01/26 19:03:15;;;;;;;15.60;8.25;;;;;;;13.96;59.90;101691.22;10548603;28;20051;-81
2024/01/26 19:08:39;;;;;;;11.05;7.50;;;;;;;13.84;57.53;101701.63;10564761;28;20051;-82
2024/01/26 19:14:01;;;;;;;14.85;9.73;;;;;;;13.64;57.18;101694.19;10576057;28;20100;-83
2024/01/26 19:19:24;;;;;;;16.95;6.18;;;;;;;13.66;55.61;101697.72;10553574;28;20043;-81
2024/01/26 19:24:48;;;;;;;10.38;4.22;;;;;;;13.51;54.25;101699.28;10571357;28;20059;-80
2024/01/26 19:30:11;;;;;;;10.57;4.90;;;;;;;13.42;52.00;101701.75;10599815;27;20055;-82
2024/01/26 19:35:33;;;;;;;10.20;4.22;;;;;;;13.43;49.93;101707.94;10543722;28;20048;-86
2024/01/26 19:40:57;;;;;;;8.32;3.58;;;;;;;13.62;46.58;101701.22;10570459;27;20040;-80
2024/01/26 19:46:20;;;;;;;5.80;3.08;;;;;;;13.81;45.02;101711.28;10585147;27;20052;-83
2024/01/26 19:51:43;;;;;;;12.68;4.13;;;;;;;13.83;44.88;101726.38;10549828;28;20118;-81
2024/01/26 19:57:07;;;;;;;13.85;6.60;;;;;;;13.83;44.92;101718.41;10546018;28;20112;-81
2024/01/26 20:02:29;;;;;;;7.32;4.05;;;;;;;13.78;46.15;101716.56;10558212;28;20063;-82
2024/01/26 20:07:55;;;;;;;10.25;4.28;;;;;;;13.68;45.78;101725.19;10556966;28;20040;-82
2024/01/26 20:13:20;;;;;;;8.43;5.63;;;;;;;13.77;45.47;101713.00;10556336;27;20056;-81
2024/01/26 20:18:42;;;;;;;7.70;4.05;;;;;;;13.74;44.88;101702.31;10549342;28;20369;-81
2024/01/26 20:24:05;;;;;;;10.88;4.90;;;;;;;13.70;44.49;101707.56;10575816;28;20101;-81
2024/01/26 20:29:29;;;;;;;6.65;4.20;;;;;;;13.70;44.92;101702.25;10561832;27;20047;-81
2024/01/26 20:34:52;;;;;;;11.00;4.70;;;;;;;13.65;45.54;101702.19;10553731;28;20036;-82
2024/01/26 20:40:15;;;;;;;8.40;5.10;;;;;;;13.61;46.22;101700.31;10558981;28;20035;-82
2024/01/26 20:45:42;;;;;;;5.97;2.10;;;;;;;13.70;46.51;101699.59;10574359;28;20510;-81
2024/01/26 20:51:05;;;;;;;11.45;3.70;;;;;;;13.65;47.43;101698.63;10548568;28;20055;-82
2024/01/26 20:56:29;;;;;;;8.57;3.63;;;;;;;13.79;48.38;101705.94;10568295;28;20411;-82
2024/01/26 21:01:55;;;;;;;8.77;2.92;;;;;;;13.82;50.22;101715.72;10574047;27;20043;-82
2024/01/26 21:07:17;;;;;;;7.95;2.92;;;;;;;13.78;49.66;101709.50;10553051;28;20612;-82
2024/01/26 21:12:39;;;;;;;8.27;2.97;;;;;;;13.75;46.92;101713.84;10560284;28;20101;-82
2024/01/26 21:18:04;;;;;;;8.38;2.67;;;;;;;13.80;47.04;101714.81;10570569;28;20093;-82
2024/01/26 21:23:27;;;;;;;10.05;3.10;;;;;;;13.80;46.84;101725.41;10560793;28;20138;-83
2024/01/26 21:28:50;;;;;;;7.93;2.58;;;;;;;13.78;46.65;101729.81;10574999;28;20108;-82
2024/01/26 21:34:14;;;;;;;9.85;2.85;;;;;;;13.78;46.41;101720.09;10560343;28;20116;-83
2024/01/26 21:39:37;;;;;;;10.15;3.03;;;;;;;13.98;45.25;101712.47;10575381;28;20108;-82
2024/01/26 21:45:00;;;;;;;22.48;10.02;;;;;;;14.01;45.31;101716.94;10558059;28;20396;-82
2024/01/26 21:50:24;;;;;;;8.60;3.22;;;;;;;14.18;45.06;101716.34;10546831;28;20051;-82
2024/01/26 21:55:47;;;;;;;8.95;3.30;;;;;;;14.42;45.41;101699.03;10575338;28;20043;-81
2024/01/26 22:01:12;;;;;;;6.47;2.47;;;;;;;14.53;45.76;101698.31;10574064;28;20052;-82
2024/01/26 22:06:38;;;;;;;8.55;3.22;;;;;;;14.33;46.99;101692.69;10589062;28;20055;-81
2024/01/26 22:12:00;;;;;;;9.18;3.42;;;;;;;14.25;47.66;101689.00;10563474;28;20051;-82
2024/01/26 22:17:23;;;;;;;9.43;3.00;;;;;;;14.05;47.35;101685.16;10582212;28;20678;-82
2024/01/26 22:22:47;;;;;;;9.85;2.72;;;;;;;14.03;44.95;101678.03;10581269;28;20130;-83
2024/01/26 22:28:09;;;;;;;6.18;2.42;;;;;;;13.93;46.17;101683.19;10581191;28;20039;-82
2024/01/26 22:33:32;;;;;;;13.13;3.28;;;;;;;13.87;47.73;101669.81;10580946;28;20051;-82
2024/01/26 22:38:57;;;;;;;6.57;2.50;;;;;;;13.97;47.89;101678.84;10581097;28;20079;-82
2024/01/26 22:44:20;;;;;;;10.60;2.88;;;;;;;14.13;48.27;101680.84;10576720;28;20048;-83
2024/01/26 22:49:43;;;;;;;11.30;4.25;;;;;;;14.04;48.53;101670.09;10580857;28;20503;-82
2024/01/26 22:55:08;;;;;;;9.18;2.80;;;;;;;13.97;48.39;101665.56;10569793;27;20056;-82
2024/01/26 23:00:31;;;;;;;10.73;3.30;;;;;;;13.91;47.50;101665.47;10579251;28;20052;-82
2024/01/26 23:05:54;;;;;;;7.55;2.50;;;;;;;13.92;46.54;101669.88;10580229;28;20046;-81
2024/01/26 23:11:19;;;;;;;7.35;2.30;;;;;;;13.92;46.63;101659.25;10579731;28;20047;-82
2024/01/26 23:16:42;;;;;;;6.18;2.40;;;;;;;13.85;47.97;101652.97;10591813;27;20047;-81
2024/01/26 23:22:06;;;;;;;6.53;2.33;;;;;;;13.86;49.08;101643.25;10578813;28;20044;-81
2024/01/26 23:27:30;;;;;;;9.18;2.67;;;;;;;13.92;50.60;101660.16;10578589;28;20049;-82
2024/01/26 23:32:52;;;;;;;11.00;3.40;;;;;;;13.88;52.61;101668.94;10578427;28;20043;-82
2024/01/26 23:38:15;;;;;;;8.60;2.47;;;;;;;14.05;54.04;101673.63;10578148;28;20052;-82
2024/01/26 23:43:40;;;;;;;9.20;2.75;;;;;;;14.13;55.24;101675.53;10550254;28;20062;-81
2024/01/26 23:49:02;;;;;;;7.97;2.53;;;;;;;14.21;56.09;101680.97;10546394;28;20141;-81
2024/01/26 23:54:25;;;;;;;8.95;2.22;;;;;;;14.23;56.98;101676.59;10578142;28;20058;-80
2024/01/26 23:59:49;;;;;;;6.78;2.28;;;;;;;14.34;57.16;101667.91;10579052;27;20048;-81
